sensor_id;sensor_type;location;lat;lon;timestamp;temperature;humidity
53045;DHT22;38930;52.766;6.884;2023-02-28T00:00:30;3.00;99.90
53045;DHT22;38930;52.766;6.884;2023-02-28T00:02:57;3.10;99.90
53045;DHT22;38930;52.766;6.884;2023-02-28T00:05:24;3.10;99.90
53045;DHT22;38930;52.766;6.884;2023-02-28T00:07:50;3.10;99.90
53045;DHT22;38930;52.766;6.884;2023-02-28T00:10:22;3.10;99.90
53045;DHT22;38930;52.766;6.884;2023-02-28T00:12:50;3.00;99.90
53045;DHT22;38930;52.766;6.884;2023-02-28T00:15:15;3.10;99.90
53045;DHT22;38930;52.766;6.884;2023-02-28T00:17:42;3.10;99.90
53045;DHT22;38930;52.766;6.884;2023-02-28T00:20:08;3.10;99.90
53045;DHT22;38930;52.766;6.884;2023-02-28T00:22:36;3.10;99.90
53045;DHT22;38930;52.766;6.884;2023-02-28T00:25:03;3.10;99.90
53045;DHT22;38930;52.766;6.884;2023-02-28T00:27:30;3.10;99.90
53045;DHT22;38930;52.766;6.884;2023-02-28T00:29:55;3.10;99.90
53045;DHT22;38930;52.766;6.884;2023-02-28T00:32:21;3.20;99.90
53045;DHT22;38930;52.766;6.884;2023-02-28T00:34:47;3.10;99.90
53045;DHT22;38930;52.766;6.884;2023-02-28T00:37:12;3.20;99.90
53045;DHT22;38930;52.766;6.884;2023-02-28T00:39:39;3.20;99.90
53045;DHT22;38930;52.766;6.884;2023-02-28T00:42:06;3.20;99.90
53045;DHT22;38930;52.766;6.884;2023-02-28T00:44:32;3.20;99.90
53045;DHT22;38930;52.766;6.884;2023-02-28T00:46:58;3.20;99.90
53045;DHT22;38930;52.766;6.884;2023-02-28T00:49:25;3.20;99.90
53045;DHT22;38930;52.766;6.884;2023-02-28T00:51:51;3.20;99.90
53045;DHT22;38930;52.766;6.884;2023-02-28T00:54:17;3.20;99.90
53045;DHT22;38930;52.766;6.884;2023-02-28T00:56:43;3.20;99.90
53045;DHT22;38930;52.766;6.884;2023-02-28T00:59:09;3.20;99.90
53045;DHT22;38930;52.766;6.884;2023-02-28T01:01:34;3.20;99.90
53045;DHT22;38930;52.766;6.884;2023-02-28T01:04:00;3.20;99.90
53045;DHT22;38930;52.766;6.884;2023-02-28T01:06:26;3.20;99.90
53045;DHT22;38930;52.766;6.884;2023-02-28T01:08:51;3.20;99.90
53045;DHT22;38930;52.766;6.884;2023-02-28T01:11:17;3.20;99.90
53045;DHT22;38930;52.766;6.884;2023-02-28T01:13:44;3.30;99.90
53045;DHT22;38930;52.766;6.884;2023-02-28T01:16:10;3.30;99.90
53045;DHT22;38930;52.766;6.884;2023-02-28T01:18:37;3.30;99.90
53045;DHT22;38930;52.766;6.884;2023-02-28T01:21:09;3.30;99.90
53045;DHT22;38930;52.766;6.884;2023-02-28T01:23:35;3.30;99.90
53045;DHT22;38930;52.766;6.884;2023-02-28T01:26:10;3.30;99.90
53045;DHT22;38930;52.766;6.884;2023-02-28T01:28:37;3.30;99.90
53045;DHT22;38930;52.766;6.884;2023-02-28T01:31:03;3.30;99.90
53045;DHT22;38930;52.766;6.884;2023-02-28T01:33:28;3.30;99.90
53045;DHT22;38930;52.766;6.884;2023-02-28T01:36:02;3.30;99.90
53045;DHT22;38930;52.766;6.884;2023-02-28T01:38:28;3.30;99.90
53045;DHT22;38930;52.766;6.884;2023-02-28T01:40:54;4.20;99.90
53045;DHT22;38930;52.766;6.884;2023-02-28T01:43:23;3.30;99.90
53045;DHT22;38930;52.766;6.884;2023-02-28T01:45:49;3.30;99.90
53045;DHT22;38930;52.766;6.884;2023-02-28T01:48:15;3.50;99.90
53045;DHT22;38930;52.766;6.884;2023-02-28T01:50:43;3.30;99.90
53045;DHT22;38930;52.766;6.884;2023-02-28T01:53:16;3.60;99.90
53045;DHT22;38930;52.766;6.884;2023-02-28T01:55:47;3.30;99.90
53045;DHT22;38930;52.766;6.884;2023-02-28T01:58:13;3.30;99.90
53045;DHT22;38930;52.766;6.884;2023-02-28T02:00:39;3.20;99.90
53045;DHT22;38930;52.766;6.884;2023-02-28T02:03:13;3.30;99.90
53045;DHT22;38930;52.766;6.884;2023-02-28T02:05:40;3.20;99.90
53045;DHT22;38930;52.766;6.884;2023-02-28T02:08:11;3.30;99.90
53045;DHT22;38930;52.766;6.884;2023-02-28T02:10:46;3.30;99.90
53045;DHT22;38930;52.766;6.884;2023-02-28T02:16:28;4.00;99.90
53045;DHT22;38930;52.766;6.884;2023-02-28T02:28:34;3.20;99.90
53045;DHT22;38930;52.766;6.884;2023-02-28T02:36:10;3.20;99.90
53045;DHT22;38930;52.766;6.884;2023-02-28T02:39:04;3.20;99.90
53045;DHT22;38930;52.766;6.884;2023-02-28T02:41:46;3.20;99.90
53045;DHT22;38930;52.766;6.884;2023-02-28T02:46:48;3.20;99.90
53045;DHT22;38930;52.766;6.884;2023-02-28T02:49:24;3.20;99.90
53045;DHT22;38930;52.766;6.884;2023-02-28T02:51:53;3.20;99.90
53045;DHT22;38930;52.766;6.884;2023-02-28T02:54:31;3.20;99.90
53045;DHT22;38930;52.766;6.884;2023-02-28T02:57:04;3.20;99.90
53045;DHT22;38930;52.766;6.884;2023-02-28T02:59:31;3.10;99.90
53045;DHT22;38930;52.766;6.884;2023-02-28T03:02:02;3.20;99.90
53045;DHT22;38930;52.766;6.884;2023-02-28T03:04:32;3.10;99.90
53045;DHT22;38930;52.766;6.884;2023-02-28T03:06:59;3.10;99.90
53045;DHT22;38930;52.766;6.884;2023-02-28T03:09:26;3.10;99.90
53045;DHT22;38930;52.766;6.884;2023-02-28T03:11:54;3.10;99.90
53045;DHT22;38930;52.766;6.884;2023-02-28T03:22:14;3.10;99.90
53045;DHT22;38930;52.766;6.884;2023-02-28T03:24:54;3.10;99.90
53045;DHT22;38930;52.766;6.884;2023-02-28T03:27:48;3.10;99.90
53045;DHT22;38930;52.766;6.884;2023-02-28T03:33:01;3.00;99.90
53045;DHT22;38930;52.766;6.884;2023-02-28T03:35:37;3.00;99.90
53045;DHT22;38930;52.766;6.884;2023-02-28T03:38:14;3.10;99.90
53045;DHT22;38930;52.766;6.884;2023-02-28T03:40:47;3.10;99.90
53045;DHT22;38930;52.766;6.884;2023-02-28T03:43:20;3.00;99.90
53045;DHT22;38930;52.766;6.884;2023-02-28T03:45:49;3.00;99.90
53045;DHT22;38930;52.766;6.884;2023-02-28T03:48:27;3.00;99.90
53045;DHT22;38930;52.766;6.884;2023-02-28T03:50:58;3.10;99.90
53045;DHT22;38930;52.766;6.884;2023-02-28T03:53:32;3.10;99.90
53045;DHT22;38930;52.766;6.884;2023-02-28T03:56:16;3.10;99.90
53045;DHT22;38930;52.766;6.884;2023-02-28T03:59:00;3.00;99.90
53045;DHT22;38930;52.766;6.884;2023-02-28T04:01:35;3.00;99.90
53045;DHT22;38930;52.766;6.884;2023-02-28T04:04:02;3.00;99.90
53045;DHT22;38930;52.766;6.884;2023-02-28T04:06:31;3.00;99.90
53045;DHT22;38930;52.766;6.884;2023-02-28T04:08:57;3.10;99.90
53045;DHT22;38930;52.766;6.884;2023-02-28T04:13:56;3.00;99.90
53045;DHT22;38930;52.766;6.884;2023-02-28T04:16:22;3.00;99.90
53045;DHT22;38930;52.766;6.884;2023-02-28T04:18:48;3.00;99.90
53045;DHT22;38930;52.766;6.884;2023-02-28T04:21:13;3.50;99.90
53045;DHT22;38930;52.766;6.884;2023-02-28T04:23:39;3.00;99.90
53045;DHT22;38930;52.766;6.884;2023-02-28T04:26:05;3.00;99.90
53045;DHT22;38930;52.766;6.884;2023-02-28T04:28:32;3.00;99.90
53045;DHT22;38930;52.766;6.884;2023-02-28T04:31:00;3.00;99.90
53045;DHT22;38930;52.766;6.884;2023-02-28T04:33:27;3.00;99.90
53045;DHT22;38930;52.766;6.884;2023-02-28T04:36:07;3.00;99.90
53045;DHT22;38930;52.766;6.884;2023-02-28T04:38:35;3.00;99.90
53045;DHT22;38930;52.766;6.884;2023-02-28T04:41:01;2.60;99.90
53045;DHT22;38930;52.766;6.884;2023-02-28T04:43:27;3.00;99.90
53045;DHT22;38930;52.766;6.884;2023-02-28T04:45:54;3.00;99.90
53045;DHT22;38930;52.766;6.884;2023-02-28T04:48:24;3.00;99.90
53045;DHT22;38930;52.766;6.884;2023-02-28T04:50:50;3.20;99.90
53045;DHT22;38930;52.766;6.884;2023-02-28T04:53:16;3.00;99.90
53045;DHT22;38930;52.766;6.884;2023-02-28T04:55:41;3.00;99.90
53045;DHT22;38930;52.766;6.884;2023-02-28T04:58:07;3.00;99.90
53045;DHT22;38930;52.766;6.884;2023-02-28T05:00:33;3.00;99.90
53045;DHT22;38930;52.766;6.884;2023-02-28T05:02:58;3.00;99.90
53045;DHT22;38930;52.766;6.884;2023-02-28T05:05:24;3.00;99.90
53045;DHT22;38930;52.766;6.884;2023-02-28T05:07:49;3.00;99.90
53045;DHT22;38930;52.766;6.884;2023-02-28T05:10:15;3.00;99.90
53045;DHT22;38930;52.766;6.884;2023-02-28T05:12:41;3.00;99.90
53045;DHT22;38930;52.766;6.884;2023-02-28T05:15:10;3.00;99.90
53045;DHT22;38930;52.766;6.884;2023-02-28T05:17:37;3.00;99.90
53045;DHT22;38930;52.766;6.884;2023-02-28T05:20:03;3.00;99.90
53045;DHT22;38930;52.766;6.884;2023-02-28T05:22:30;3.00;99.90
53045;DHT22;38930;52.766;6.884;2023-02-28T05:24:56;3.00;99.90
53045;DHT22;38930;52.766;6.884;2023-02-28T05:27:21;3.00;99.90
53045;DHT22;38930;52.766;6.884;2023-02-28T05:29:47;3.00;99.90
53045;DHT22;38930;52.766;6.884;2023-02-28T05:32:13;3.00;99.90
53045;DHT22;38930;52.766;6.884;2023-02-28T05:34:39;3.00;99.90
53045;DHT22;38930;52.766;6.884;2023-02-28T05:37:06;3.00;99.90
53045;DHT22;38930;52.766;6.884;2023-02-28T05:39:32;3.00;99.90
53045;DHT22;38930;52.766;6.884;2023-02-28T05:41:58;3.10;99.90
53045;DHT22;38930;52.766;6.884;2023-02-28T05:44:24;3.00;99.90
53045;DHT22;38930;52.766;6.884;2023-02-28T05:46:50;2.90;99.90
53045;DHT22;38930;52.766;6.884;2023-02-28T05:49:15;2.90;99.90
53045;DHT22;38930;52.766;6.884;2023-02-28T05:51:41;2.90;99.90
53045;DHT22;38930;52.766;6.884;2023-02-28T05:54:07;3.00;99.90
53045;DHT22;38930;52.766;6.884;2023-02-28T05:56:33;2.90;99.90
53045;DHT22;38930;52.766;6.884;2023-02-28T05:59:04;2.90;99.90
53045;DHT22;38930;52.766;6.884;2023-02-28T06:01:44;2.90;99.90
53045;DHT22;38930;52.766;6.884;2023-02-28T06:04:14;2.90;99.90
53045;DHT22;38930;52.766;6.884;2023-02-28T06:06:44;2.90;99.90
53045;DHT22;38930;52.766;6.884;2023-02-28T06:09:10;2.90;99.90
53045;DHT22;38930;52.766;6.884;2023-02-28T06:11:35;2.90;99.90
53045;DHT22;38930;52.766;6.884;2023-02-28T06:14:02;2.80;99.90
53045;DHT22;38930;52.766;6.884;2023-02-28T06:16:30;2.80;99.90
53045;DHT22;38930;52.766;6.884;2023-02-28T06:19:00;2.80;99.90
53045;DHT22;38930;52.766;6.884;2023-02-28T06:21:27;2.80;99.90
53045;DHT22;38930;52.766;6.884;2023-02-28T06:23:53;2.80;99.90
53045;DHT22;38930;52.766;6.884;2023-02-28T06:26:19;2.80;99.90
53045;DHT22;38930;52.766;6.884;2023-02-28T06:28:45;2.80;99.90
53045;DHT22;38930;52.766;6.884;2023-02-28T06:31:13;2.80;99.90
53045;DHT22;38930;52.766;6.884;2023-02-28T06:33:39;2.90;99.90
53045;DHT22;38930;52.766;6.884;2023-02-28T06:36:06;2.80;99.90
53045;DHT22;38930;52.766;6.884;2023-02-28T06:38:32;2.80;99.90
53045;DHT22;38930;52.766;6.884;2023-02-28T06:41:00;2.80;99.90
53045;DHT22;38930;52.766;6.884;2023-02-28T06:43:28;2.90;99.90
53045;DHT22;38930;52.766;6.884;2023-02-28T06:45:55;3.00;99.90
53045;DHT22;38930;52.766;6.884;2023-02-28T06:48:21;2.90;99.90
53045;DHT22;38930;52.766;6.884;2023-02-28T06:50:47;2.90;99.90
53045;DHT22;38930;52.766;6.884;2023-02-28T06:53:13;3.80;99.90
53045;DHT22;38930;52.766;6.884;2023-02-28T06:55:39;3.00;99.90
53045;DHT22;38930;52.766;6.884;2023-02-28T06:58:06;3.00;99.90
53045;DHT22;38930;52.766;6.884;2023-02-28T07:00:41;3.10;99.90
53045;DHT22;38930;52.766;6.884;2023-02-28T07:03:07;3.10;99.90
53045;DHT22;38930;52.766;6.884;2023-02-28T07:05:35;3.10;99.90
53045;DHT22;38930;52.766;6.884;2023-02-28T07:08:01;3.20;99.90
53045;DHT22;38930;52.766;6.884;2023-02-28T07:10:27;3.20;99.90
53045;DHT22;38930;52.766;6.884;2023-02-28T07:12:52;3.20;99.90
53045;DHT22;38930;52.766;6.884;2023-02-28T07:15:18;3.20;99.90
53045;DHT22;38930;52.766;6.884;2023-02-28T07:17:43;3.20;99.90
53045;DHT22;38930;52.766;6.884;2023-02-28T07:20:09;3.20;99.90
53045;DHT22;38930;52.766;6.884;2023-02-28T07:22:35;3.10;99.90
53045;DHT22;38930;52.766;6.884;2023-02-28T07:25:01;3.10;99.90
53045;DHT22;38930;52.766;6.884;2023-02-28T07:27:26;3.00;99.90
53045;DHT22;38930;52.766;6.884;2023-02-28T07:29:52;3.10;99.90
53045;DHT22;38930;52.766;6.884;2023-02-28T07:32:19;2.90;99.90
53045;DHT22;38930;52.766;6.884;2023-02-28T07:34:45;2.90;99.90
53045;DHT22;38930;52.766;6.884;2023-02-28T07:37:10;2.90;99.90
53045;DHT22;38930;52.766;6.884;2023-02-28T07:39:36;2.90;99.90
53045;DHT22;38930;52.766;6.884;2023-02-28T07:42:05;2.80;99.90
53045;DHT22;38930;52.766;6.884;2023-02-28T07:44:31;2.80;99.90
53045;DHT22;38930;52.766;6.884;2023-02-28T07:46:57;2.80;99.90
53045;DHT22;38930;52.766;6.884;2023-02-28T07:49:23;2.80;99.90
53045;DHT22;38930;52.766;6.884;2023-02-28T07:51:49;2.80;99.90
53045;DHT22;38930;52.766;6.884;2023-02-28T07:54:15;2.80;99.90
53045;DHT22;38930;52.766;6.884;2023-02-28T07:56:40;2.80;99.90
53045;DHT22;38930;52.766;6.884;2023-02-28T07:59:06;2.80;99.90
53045;DHT22;38930;52.766;6.884;2023-02-28T08:01:31;2.80;99.90
53045;DHT22;38930;52.766;6.884;2023-02-28T08:03:57;3.60;99.90
53045;DHT22;38930;52.766;6.884;2023-02-28T08:06:24;2.90;99.90
53045;DHT22;38930;52.766;6.884;2023-02-28T08:08:52;3.00;99.90
53045;DHT22;38930;52.766;6.884;2023-02-28T08:11:18;3.00;99.90
53045;DHT22;38930;52.766;6.884;2023-02-28T08:13:45;3.20;99.90
53045;DHT22;38930;52.766;6.884;2023-02-28T08:16:12;3.20;99.90
53045;DHT22;38930;52.766;6.884;2023-02-28T08:18:40;3.30;99.90
53045;DHT22;38930;52.766;6.884;2023-02-28T08:21:09;3.50;99.90
53045;DHT22;38930;52.766;6.884;2023-02-28T08:23:36;3.50;99.90
53045;DHT22;38930;52.766;6.884;2023-02-28T08:26:02;3.50;99.90
53045;DHT22;38930;52.766;6.884;2023-02-28T08:28:28;3.60;99.90
53045;DHT22;38930;52.766;6.884;2023-02-28T08:30:54;4.50;99.90
53045;DHT22;38930;52.766;6.884;2023-02-28T08:33:20;3.50;99.90
53045;DHT22;38930;52.766;6.884;2023-02-28T08:35:45;3.50;99.90
53045;DHT22;38930;52.766;6.884;2023-02-28T08:38:11;3.50;99.90
53045;DHT22;38930;52.766;6.884;2023-02-28T08:40:36;3.60;99.90
53045;DHT22;38930;52.766;6.884;2023-02-28T08:43:02;3.60;99.90
53045;DHT22;38930;52.766;6.884;2023-02-28T08:45:28;3.60;99.90
53045;DHT22;38930;52.766;6.884;2023-02-28T08:47:56;3.70;99.90
53045;DHT22;38930;52.766;6.884;2023-02-28T08:50:22;3.70;99.90
53045;DHT22;38930;52.766;6.884;2023-02-28T08:52:47;3.80;99.90
53045;DHT22;38930;52.766;6.884;2023-02-28T08:55:13;3.70;99.90
53045;DHT22;38930;52.766;6.884;2023-02-28T08:57:39;3.80;99.90
53045;DHT22;38930;52.766;6.884;2023-02-28T09:00:05;3.80;99.90
53045;DHT22;38930;52.766;6.884;2023-02-28T09:02:31;3.90;99.90
53045;DHT22;38930;52.766;6.884;2023-02-28T09:04:57;4.00;99.90
53045;DHT22;38930;52.766;6.884;2023-02-28T09:07:24;4.00;99.90
53045;DHT22;38930;52.766;6.884;2023-02-28T09:09:50;4.00;99.90
53045;DHT22;38930;52.766;6.884;2023-02-28T09:12:23;4.10;99.90
53045;DHT22;38930;52.766;6.884;2023-02-28T09:14:49;4.20;99.90
53045;DHT22;38930;52.766;6.884;2023-02-28T09:17:15;4.20;99.90
53045;DHT22;38930;52.766;6.884;2023-02-28T09:19:41;4.20;99.90
53045;DHT22;38930;52.766;6.884;2023-02-28T09:22:08;4.30;99.90
53045;DHT22;38930;52.766;6.884;2023-02-28T09:24:33;4.40;99.90
53045;DHT22;38930;52.766;6.884;2023-02-28T09:27:00;4.40;99.90
53045;DHT22;38930;52.766;6.884;2023-02-28T09:29:26;4.50;99.90
53045;DHT22;38930;52.766;6.884;2023-02-28T09:31:52;4.60;99.90
53045;DHT22;38930;52.766;6.884;2023-02-28T09:34:17;4.70;99.90
53045;DHT22;38930;52.766;6.884;2023-02-28T09:36:43;4.70;99.90
53045;DHT22;38930;52.766;6.884;2023-02-28T09:39:09;4.80;99.90
53045;DHT22;38930;52.766;6.884;2023-02-28T09:41:41;4.80;99.90
53045;DHT22;38930;52.766;6.884;2023-02-28T09:44:19;4.90;99.90
53045;DHT22;38930;52.766;6.884;2023-02-28T09:46:48;4.90;99.90
53045;DHT22;38930;52.766;6.884;2023-02-28T09:49:20;5.00;99.90
53045;DHT22;38930;52.766;6.884;2023-02-28T09:54:20;5.10;99.90
53045;DHT22;38930;52.766;6.884;2023-02-28T09:57:06;5.20;99.90
53045;DHT22;38930;52.766;6.884;2023-02-28T10:02:04;5.30;99.90
53045;DHT22;38930;52.766;6.884;2023-02-28T10:07:04;5.30;99.90
53045;DHT22;38930;52.766;6.884;2023-02-28T10:09:33;5.30;99.90
53045;DHT22;38930;52.766;6.884;2023-02-28T10:12:05;5.40;99.90
53045;DHT22;38930;52.766;6.884;2023-02-28T10:14:35;5.30;99.90
53045;DHT22;38930;52.766;6.884;2023-02-28T10:17:12;5.40;99.90
53045;DHT22;38930;52.766;6.884;2023-02-28T10:25:26;5.50;99.90
53045;DHT22;38930;52.766;6.884;2023-02-28T10:28:10;5.50;99.90
53045;DHT22;38930;52.766;6.884;2023-02-28T10:30:51;5.50;99.90
53045;DHT22;38930;52.766;6.884;2023-02-28T10:33:30;5.60;99.90
53045;DHT22;38930;52.766;6.884;2023-02-28T10:35:57;5.60;99.90
53045;DHT22;38930;52.766;6.884;2023-02-28T10:38:25;5.70;99.90
53045;DHT22;38930;52.766;6.884;2023-02-28T10:40:51;5.70;99.90
53045;DHT22;38930;52.766;6.884;2023-02-28T10:49:00;5.90;99.90
53045;DHT22;38930;52.766;6.884;2023-02-28T10:51:35;6.00;99.90
53045;DHT22;38930;52.766;6.884;2023-02-28T10:54:02;5.90;99.90
53045;DHT22;38930;52.766;6.884;2023-02-28T10:56:28;5.90;99.90
53045;DHT22;38930;52.766;6.884;2023-02-28T11:03:56;6.00;99.90
53045;DHT22;38930;52.766;6.884;2023-02-28T11:06:34;6.00;99.90
53045;DHT22;38930;52.766;6.884;2023-02-28T11:09:14;6.10;99.90
53045;DHT22;38930;52.766;6.884;2023-02-28T11:11:45;6.20;99.90
53045;DHT22;38930;52.766;6.884;2023-02-28T11:14:25;6.20;99.90
53045;DHT22;38930;52.766;6.884;2023-02-28T11:16:51;6.30;99.90
53045;DHT22;38930;52.766;6.884;2023-02-28T11:19:38;7.00;99.90
53045;DHT22;38930;52.766;6.884;2023-02-28T11:22:05;6.30;99.90
53045;DHT22;38930;52.766;6.884;2023-02-28T11:24:36;6.50;99.90
53045;DHT22;38930;52.766;6.884;2023-02-28T11:27:06;7.10;99.90
53045;DHT22;38930;52.766;6.884;2023-02-28T11:29:33;6.50;99.90
53045;DHT22;38930;52.766;6.884;2023-02-28T11:32:19;6.60;99.90
53045;DHT22;38930;52.766;6.884;2023-02-28T11:34:59;6.90;99.90
53045;DHT22;38930;52.766;6.884;2023-02-28T11:37:27;6.80;99.90
53045;DHT22;38930;52.766;6.884;2023-02-28T11:39:54;6.80;99.90
53045;DHT22;38930;52.766;6.884;2023-02-28T11:53:48;7.10;99.90
53045;DHT22;38930;52.766;6.884;2023-02-28T11:56:44;7.20;99.90
53045;DHT22;38930;52.766;6.884;2023-02-28T11:59:35;7.20;99.90
53045;DHT22;38930;52.766;6.884;2023-02-28T12:05:24;7.20;99.90
53045;DHT22;38930;52.766;6.884;2023-02-28T12:10:51;7.30;99.90
53045;DHT22;38930;52.766;6.884;2023-02-28T12:13:48;7.30;99.90
53045;DHT22;38930;52.766;6.884;2023-02-28T12:22:49;7.30;99.90
53045;DHT22;38930;52.766;6.884;2023-02-28T12:25:38;7.30;99.90
53045;DHT22;38930;52.766;6.884;2023-02-28T12:28:12;7.20;99.90
53045;DHT22;38930;52.766;6.884;2023-02-28T12:30:45;7.40;99.90
53045;DHT22;38930;52.766;6.884;2023-02-28T12:33:14;7.40;99.90
53045;DHT22;38930;52.766;6.884;2023-02-28T12:35:49;7.50;99.90
53045;DHT22;38930;52.766;6.884;2023-02-28T12:38:27;7.60;99.90
53045;DHT22;38930;52.766;6.884;2023-02-28T12:40:56;7.80;99.90
53045;DHT22;38930;52.766;6.884;2023-02-28T12:43:27;7.70;99.90
53045;DHT22;38930;52.766;6.884;2023-02-28T12:48:50;7.70;99.90
53045;DHT22;38930;52.766;6.884;2023-02-28T12:51:18;7.70;99.90
53045;DHT22;38930;52.766;6.884;2023-02-28T12:53:59;8.40;99.90
53045;DHT22;38930;52.766;6.884;2023-02-28T12:59:08;8.60;99.90
53045;DHT22;38930;52.766;6.884;2023-02-28T13:10:42;7.60;99.90
53045;DHT22;38930;52.766;6.884;2023-02-28T13:13:18;7.70;99.90
53045;DHT22;38930;52.766;6.884;2023-02-28T13:16:03;7.70;99.90
53045;DHT22;38930;52.766;6.884;2023-02-28T13:18:31;7.70;99.90
53045;DHT22;38930;52.766;6.884;2023-02-28T13:20:58;7.60;99.90
53045;DHT22;38930;52.766;6.884;2023-02-28T13:26:21;7.60;99.90
53045;DHT22;38930;52.766;6.884;2023-02-28T13:29:20;7.60;99.90
53045;DHT22;38930;52.766;6.884;2023-02-28T13:34:38;7.60;99.90
53045;DHT22;38930;52.766;6.884;2023-02-28T13:42:37;7.50;99.90
53045;DHT22;38930;52.766;6.884;2023-02-28T13:47:45;7.60;99.90
53045;DHT22;38930;52.766;6.884;2023-02-28T14:06:55;7.40;99.90
53045;DHT22;38930;52.766;6.884;2023-02-28T14:09:27;7.40;99.90
53045;DHT22;38930;52.766;6.884;2023-02-28T14:11:54;7.30;99.90
53045;DHT22;38930;52.766;6.884;2023-02-28T14:17:05;7.30;99.90
53045;DHT22;38930;52.766;6.884;2023-02-28T14:19:34;7.30;99.90
53045;DHT22;38930;52.766;6.884;2023-02-28T14:27:32;7.30;99.90
53045;DHT22;38930;52.766;6.884;2023-02-28T14:36:07;7.30;99.90
53045;DHT22;38930;52.766;6.884;2023-02-28T14:38:39;7.30;99.90
53045;DHT22;38930;52.766;6.884;2023-02-28T14:41:14;7.20;99.90
53045;DHT22;38930;52.766;6.884;2023-02-28T14:43:52;7.20;99.90
53045;DHT22;38930;52.766;6.884;2023-02-28T14:46:18;7.10;99.90
53045;DHT22;38930;52.766;6.884;2023-02-28T14:48:46;7.10;99.90
53045;DHT22;38930;52.766;6.884;2023-02-28T14:51:19;7.10;99.90
53045;DHT22;38930;52.766;6.884;2023-02-28T14:53:52;7.80;99.90
53045;DHT22;38930;52.766;6.884;2023-02-28T14:56:27;7.10;99.90
53045;DHT22;38930;52.766;6.884;2023-02-28T14:58:57;7.10;99.90
53045;DHT22;38930;52.766;6.884;2023-02-28T15:01:24;7.30;99.90
53045;DHT22;38930;52.766;6.884;2023-02-28T15:04:12;7.00;99.90
53045;DHT22;38930;52.766;6.884;2023-02-28T15:06:43;7.10;99.90
53045;DHT22;38930;52.766;6.884;2023-02-28T15:09:14;7.10;99.90
53045;DHT22;38930;52.766;6.884;2023-02-28T15:11:40;7.10;99.90
53045;DHT22;38930;52.766;6.884;2023-02-28T15:14:12;7.00;99.90
53045;DHT22;38930;52.766;6.884;2023-02-28T15:16:41;7.00;99.90
53045;DHT22;38930;52.766;6.884;2023-02-28T15:21:48;6.90;99.90
53045;DHT22;38930;52.766;6.884;2023-02-28T15:24:37;7.00;99.90
53045;DHT22;38930;52.766;6.884;2023-02-28T15:27:09;6.90;99.90
53045;DHT22;38930;52.766;6.884;2023-02-28T15:29:44;6.90;99.90
53045;DHT22;38930;52.766;6.884;2023-02-28T15:32:34;6.90;99.90
53045;DHT22;38930;52.766;6.884;2023-02-28T15:37:53;6.90;99.90
53045;DHT22;38930;52.766;6.884;2023-02-28T15:40:45;6.80;99.90
53045;DHT22;38930;52.766;6.884;2023-02-28T15:43:15;6.80;99.90
53045;DHT22;38930;52.766;6.884;2023-02-28T15:45:47;6.80;99.90
53045;DHT22;38930;52.766;6.884;2023-02-28T15:50:55;6.90;99.90
53045;DHT22;38930;52.766;6.884;2023-02-28T15:53:24;6.60;99.90
53045;DHT22;38930;52.766;6.884;2023-02-28T15:56:05;6.60;99.90
53045;DHT22;38930;52.766;6.884;2023-02-28T15:58:33;6.60;99.90
53045;DHT22;38930;52.766;6.884;2023-02-28T16:01:05;6.50;99.90
53045;DHT22;38930;52.766;6.884;2023-02-28T16:03:44;6.40;99.90
53045;DHT22;38930;52.766;6.884;2023-02-28T16:06:26;6.50;99.90
53045;DHT22;38930;52.766;6.884;2023-02-28T16:08:54;6.50;99.90
53045;DHT22;38930;52.766;6.884;2023-02-28T16:11:20;6.30;99.90
53045;DHT22;38930;52.766;6.884;2023-02-28T16:13:47;6.30;99.90
53045;DHT22;38930;52.766;6.884;2023-02-28T16:16:18;6.20;99.90
53045;DHT22;38930;52.766;6.884;2023-02-28T16:18:45;6.20;99.90
53045;DHT22;38930;52.766;6.884;2023-02-28T16:21:13;6.10;99.90
53045;DHT22;38930;52.766;6.884;2023-02-28T16:23:46;6.00;99.90
53045;DHT22;38930;52.766;6.884;2023-02-28T16:26:32;6.00;99.90
53045;DHT22;38930;52.766;6.884;2023-02-28T16:29:04;5.80;99.90
53045;DHT22;38930;52.766;6.884;2023-02-28T16:31:43;5.80;99.90
53045;DHT22;38930;52.766;6.884;2023-02-28T16:36:52;5.70;99.90
53045;DHT22;38930;52.766;6.884;2023-02-28T16:39:29;5.60;99.90
53045;DHT22;38930;52.766;6.884;2023-02-28T16:42:23;5.60;99.90
53045;DHT22;38930;52.766;6.884;2023-02-28T16:44:50;5.60;99.90
53045;DHT22;38930;52.766;6.884;2023-02-28T16:47:16;5.50;99.90
53045;DHT22;38930;52.766;6.884;2023-02-28T16:49:41;5.40;99.90
53045;DHT22;38930;52.766;6.884;2023-02-28T16:52:09;5.30;99.90
53045;DHT22;38930;52.766;6.884;2023-02-28T16:54:35;5.20;99.90
53045;DHT22;38930;52.766;6.884;2023-02-28T16:57:01;6.10;99.90
53045;DHT22;38930;52.766;6.884;2023-02-28T16:59:27;5.10;99.90
53045;DHT22;38930;52.766;6.884;2023-02-28T17:01:54;5.00;99.90
53045;DHT22;38930;52.766;6.884;2023-02-28T17:04:19;4.90;99.90
53045;DHT22;38930;52.766;6.884;2023-02-28T17:06:45;4.90;99.90
53045;DHT22;38930;52.766;6.884;2023-02-28T17:09:16;4.70;99.90
53045;DHT22;38930;52.766;6.884;2023-02-28T17:11:43;5.10;99.90
53045;DHT22;38930;52.766;6.884;2023-02-28T17:14:08;4.60;99.90
53045;DHT22;38930;52.766;6.884;2023-02-28T17:16:36;4.50;99.90
53045;DHT22;38930;52.766;6.884;2023-02-28T17:19:04;4.50;99.90
53045;DHT22;38930;52.766;6.884;2023-02-28T17:21:31;4.40;99.90
53045;DHT22;38930;52.766;6.884;2023-02-28T17:23:57;4.40;99.90
53045;DHT22;38930;52.766;6.884;2023-02-28T17:26:23;4.30;99.90
53045;DHT22;38930;52.766;6.884;2023-02-28T17:28:53;4.20;99.90
53045;DHT22;38930;52.766;6.884;2023-02-28T17:31:21;4.10;99.90
53045;DHT22;38930;52.766;6.884;2023-02-28T17:33:47;4.00;99.90
53045;DHT22;38930;52.766;6.884;2023-02-28T17:36:14;3.90;99.90
53045;DHT22;38930;52.766;6.884;2023-02-28T17:38:41;3.80;99.90
53045;DHT22;38930;52.766;6.884;2023-02-28T17:41:10;3.80;99.90
53045;DHT22;38930;52.766;6.884;2023-02-28T17:43:35;3.80;99.90
53045;DHT22;38930;52.766;6.884;2023-02-28T17:46:01;3.70;99.90
53045;DHT22;38930;52.766;6.884;2023-02-28T17:48:27;4.50;99.90
53045;DHT22;38930;52.766;6.884;2023-02-28T17:50:53;3.60;99.90
53045;DHT22;38930;52.766;6.884;2023-02-28T17:53:19;3.60;99.90
53045;DHT22;38930;52.766;6.884;2023-02-28T17:55:48;3.50;99.90
53045;DHT22;38930;52.766;6.884;2023-02-28T17:58:14;3.40;99.90
53045;DHT22;38930;52.766;6.884;2023-02-28T18:00:40;3.30;99.90
53045;DHT22;38930;52.766;6.884;2023-02-28T18:03:06;3.80;99.90
53045;DHT22;38930;52.766;6.884;2023-02-28T18:05:32;3.20;99.90
53045;DHT22;38930;52.766;6.884;2023-02-28T18:07:57;3.10;99.90
53045;DHT22;38930;52.766;6.884;2023-02-28T18:10:23;3.10;99.90
53045;DHT22;38930;52.766;6.884;2023-02-28T18:12:51;3.00;99.90
53045;DHT22;38930;52.766;6.884;2023-02-28T18:15:18;3.00;99.90
53045;DHT22;38930;52.766;6.884;2023-02-28T18:17:48;2.90;99.90
53045;DHT22;38930;52.766;6.884;2023-02-28T18:20:14;2.80;99.90
53045;DHT22;38930;52.766;6.884;2023-02-28T18:22:40;3.00;99.90
53045;DHT22;38930;52.766;6.884;2023-02-28T18:25:07;2.70;99.90
53045;DHT22;38930;52.766;6.884;2023-02-28T18:27:34;2.70;99.90
53045;DHT22;38930;52.766;6.884;2023-02-28T18:30:01;2.60;99.90